LDZU weather

CLOSED Udbina Air Base
Udbina, Lika-Senj County, Croatia

Public forecast

Using degrees Celsius for public forecast. Weather courtesy of forecast.io.

Closest aviation weather report (METAR) to Udbina Air Base

Closest report is Zadar Airport, 32.6 nm (60.4 km) SW. Retrieved 2020/06/01 01:30 UTC (7 minutes ago):

LDZD 010130Z VRB03KT 9999 FEW055 14/05 Q1015

Closest aviation forecast (TAF) to Udbina Air Base

Closest forecast is Zadar Airport, 32.6 nm (60.4 km) SW. Retrieved 2020-06-01 00:31 UTC (1 hour ago):

TAF LDZD 312325Z 0100/0200 07006KT 9999 FEW050 TX24/0113Z TN11/0104Z TEMPO 0109/0116 30010KT BECMG 0117/0119 05008KT